KPRX/PRX METAR and TAF weather

Enter ICAO airport designator
Station Type Date Time Source
KPRX METAR 2020/09/25 19:56 UTC NOAA

KPRX 251956Z AUTO 15006KT 10SM BKN023 24/18 A2999 RMK AO2 SLP164 T02390178 PNO $


Station Type Date Time Source
KPRX Decoded METAR 2020/09/25 19:56 UTC NOAA

Paris / Cox Field, TX, United States (KPRX) 33-38N 095-27W
Sep 25, 2020 - 03:56 PM EDT / 2020.09.25 1956 UTC
Wind: from the SSE (150 degrees) at 7 MPH (6 KT):0
Visibility: 10 mile(s):0
Sky conditions: mostly cloudy
Temperature: 75.0 F (23.9 C)
Dew Point: 64.0 F (17.8 C)
Relative Humidity: 68%
Pressure (altimeter): 29.99 in. Hg (1015 hPa)
ob: KPRX 251956Z AUTO 15006KT 10SM BKN023 24/18 A2999 RMK AO2 SLP164 T02390178 PNO
cycle: 20

Station Type Date Time Source
KPRX TAF UTC NOAA

Error!

Example: see airport list